Decoded Metar for LYBT (BELGRADE BATAJNICA in SERBIA) (IATA:N/A) | Meteo·Mobile Aviation Weather
aviador You're here:

LYBT Decoded Metar

BELGRADE BATAJNICA in SERBIA
Report Time2018-12-15 16:00:00
UTC Time2018-12-15 16:08:45
Flight Rules ifr IFR
WindCalm
Visibility2500 m
Phenomena:Snow
Clouds:Few 003 Hf
Broken 006 Hf
Overcast 025 Hf
Ceiling600 ft
Temp-1°C (ISA -15)
Dew Point-1°C (100% RH)
AAT-3.1°C
QNH1018 hPa
Density Alt-1,726 ft
Elevation262 ft
Report Wrong Elevation
Raw Report
METAR LYBT 151600Z 00000KT 2500 SN FEW003 BKN006 OVC025 M01/M01 Q1018
12/////// NOSIG=

Extra information for LYBT:More info

Metar Taf Metar & Taf Last 4 Metars F.Rules Stats Wind Profile Meteogram Temp Stats Airport Information Weather charts Add Link Nearby VenuesMetar ALERT Operation Metar Decoded Social comments